createdAt,value
2023-03-04T00:01:13.276Z,13.68
2023-03-04T00:03:41.038Z,11.25
2023-03-04T00:06:09.438Z,10.93
2023-03-04T00:08:37.426Z,13.72
2023-03-04T00:11:05.204Z,12.23
2023-03-04T00:13:33.213Z,10.90
2023-03-04T00:16:01.100Z,14.23
2023-03-04T00:18:32.186Z,15.40
2023-03-04T00:21:00.307Z,11.35
2023-03-04T00:23:29.068Z,13.62
2023-03-04T00:25:57.531Z,11.35
2023-03-04T00:28:25.615Z,10.90
2023-03-04T00:30:53.804Z,17.57
2023-03-04T00:33:21.942Z,11.83
2023-03-04T00:35:53.097Z,14.30
2023-03-04T00:38:21.515Z,11.90
2023-03-04T00:40:49.179Z,11.93
2023-03-04T00:43:16.917Z,10.65
2023-03-04T00:45:44.561Z,11.38
2023-03-04T00:48:12.827Z,13.03
2023-03-04T00:50:40.412Z,10.43
2023-03-04T00:53:10.419Z,10.20
2023-03-04T00:55:38.844Z,9.58
2023-03-04T00:58:06.777Z,10.98
2023-03-04T01:00:34.514Z,9.83
2023-03-04T01:03:05.203Z,12.53
2023-03-04T01:05:35.084Z,11.33
2023-03-04T01:08:03.232Z,13.05
2023-03-04T01:10:31.101Z,9.85
2023-03-04T01:12:59.732Z,10.43
2023-03-04T01:15:28.059Z,11.48
2023-03-04T01:17:56.472Z,12.05
2023-03-04T01:20:24.556Z,9.13
2023-03-04T01:22:52.199Z,10.88
2023-03-04T01:25:20.178Z,8.65
2023-03-04T01:27:48.101Z,10.32
2023-03-04T01:30:16.290Z,10.72
2023-03-04T01:32:44.364Z,9.18
2023-03-04T01:35:15.548Z,8.83
2023-03-04T01:37:43.494Z,11.45
2023-03-04T01:40:13.035Z,11.43
2023-03-04T01:42:41.270Z,16.12
2023-03-04T01:45:13.117Z,9.90
2023-03-04T01:47:43.949Z,9.03
2023-03-04T01:50:15.843Z,11.55
2023-03-04T01:52:43.577Z,11.78
2023-03-04T01:55:22.873Z,10.95
2023-03-04T01:57:52.059Z,12.47
2023-03-04T02:00:26.564Z,12.30
2023-03-04T02:02:58.004Z,8.88
2023-03-04T02:05:26.858Z,12.55
2023-03-04T02:07:56.379Z,12.95
2023-03-04T02:10:24.537Z,12.33
2023-03-04T02:12:55.204Z,14.13
2023-03-04T02:15:24.448Z,17.25
2023-03-04T02:17:53.053Z,12.00
2023-03-04T02:20:58.569Z,11.38
2023-03-04T02:23:45.782Z,10.90
2023-03-04T02:26:16.749Z,11.25
2023-03-04T02:28:46.205Z,9.85
2023-03-04T02:31:45.359Z,18.40
2023-03-04T02:34:22.640Z,14.73
2023-03-04T02:36:53.278Z,10.63
2023-03-04T02:39:24.695Z,12.45
2023-03-04T02:41:55.490Z,13.70
2023-03-04T02:44:29.955Z,13.00
2023-03-04T02:46:59.203Z,14.13
2023-03-04T02:49:31.498Z,14.05
2023-03-04T02:52:09.997Z,12.00
2023-03-04T02:54:42.802Z,15.65
2023-03-04T02:57:29.346Z,16.10
2023-03-04T02:59:57.567Z,13.62
2023-03-04T03:02:26.840Z,11.35
2023-03-04T03:04:54.953Z,9.88
2023-03-04T03:07:22.806Z,13.98
2023-03-04T03:09:51.064Z,11.95
2023-03-04T03:12:22.263Z,13.10
2023-03-04T03:14:50.901Z,10.63
2023-03-04T03:17:19.629Z,17.70
2023-03-04T03:19:48.015Z,16.85
2023-03-04T03:22:16.342Z,11.88
2023-03-04T03:24:44.316Z,11.85
2023-03-04T03:27:12.290Z,16.77
2023-03-04T03:29:43.421Z,12.47
2023-03-04T03:32:10.853Z,16.37
2023-03-04T03:34:38.826Z,13.62
2023-03-04T03:37:06.387Z,13.28
2023-03-04T03:39:34.561Z,20.80
2023-03-04T03:42:02.692Z,16.75
2023-03-04T03:44:30.402Z,16.05
2023-03-04T03:46:58.449Z,15.08
2023-03-04T03:49:26.663Z,13.48
2023-03-04T03:51:55.142Z,13.90
2023-03-04T03:54:23.330Z,18.45
2023-03-04T03:56:50.973Z,13.98
2023-03-04T03:59:20.074Z,17.27
2023-03-04T04:01:48.357Z,16.55
2023-03-04T04:04:16.821Z,15.08
2023-03-04T04:06:48.345Z,17.55
2023-03-04T04:09:16.449Z,15.18
2023-03-04T04:11:44.475Z,16.00
2023-03-04T04:14:14.063Z,19.32
2023-03-04T04:16:42.088Z,18.55
2023-03-04T04:19:19.849Z,19.02
2023-03-04T04:21:48.570Z,18.27
2023-03-04T04:24:17.158Z,15.53
2023-03-04T04:26:44.649Z,18.05
2023-03-04T04:29:14.760Z,21.52
2023-03-04T04:31:42.977Z,17.27
2023-03-04T04:34:13.862Z,19.12
2023-03-04T04:36:42.795Z,19.00
2023-03-04T04:39:11.144Z,17.80
2023-03-04T04:41:42.421Z,19.17
2023-03-04T04:44:13.929Z,21.10
2023-03-04T04:46:42.720Z,20.30
2023-03-04T04:49:11.818Z,24.23
2023-03-04T04:51:40.490Z,20.25
2023-03-04T04:54:09.750Z,22.50
2023-03-04T04:56:38.850Z,21.77
2023-03-04T04:59:08.831Z,21.05
2023-03-04T05:01:36.720Z,20.20
2023-03-04T05:04:05.166Z,19.48
2023-03-04T05:06:36.025Z,21.60
2023-03-04T05:09:05.040Z,23.85
2023-03-04T05:11:33.305Z,23.05
2023-03-04T05:16:49.565Z,21.90
2023-03-04T05:19:18.286Z,22.37
2023-03-04T05:21:49.713Z,24.65
2023-03-04T05:24:19.378Z,23.83
2023-03-04T05:26:47.459Z,21.23
2023-03-04T05:29:19.072Z,25.55
2023-03-04T05:31:47.358Z,22.55
2023-03-04T05:34:15.760Z,22.62
2023-03-04T05:36:43.705Z,29.23
2023-03-04T05:39:12.583Z,24.85
2023-03-04T05:41:41.052Z,22.93
2023-03-04T05:44:09.662Z,29.82
2023-03-04T05:46:38.379Z,28.57
2023-03-04T05:49:07.099Z,31.27
2023-03-04T05:51:35.037Z,28.92
2023-03-04T05:54:03.617Z,29.57
2023-03-04T05:56:33.666Z,26.12
2023-03-04T05:59:02.084Z,28.70
2023-03-04T06:01:30.835Z,25.80
2023-03-04T06:03:58.963Z,26.25
2023-03-04T06:06:27.032Z,28.20
2023-03-04T06:08:55.326Z,30.75
2023-03-04T06:11:24.037Z,27.48
2023-03-04T06:13:52.205Z,30.50
2023-03-04T06:16:21.213Z,30.72
2023-03-04T06:18:48.998Z,30.35
2023-03-04T06:21:16.885Z,29.35
2023-03-04T06:23:45.824Z,29.72
2023-03-04T06:26:19.868Z,29.77
2023-03-04T06:28:47.655Z,32.88
2023-03-04T06:31:15.609Z,26.60
2023-03-04T06:33:44.677Z,31.15
2023-03-04T06:36:13.272Z,27.40
2023-03-04T06:38:41.247Z,31.70
2023-03-04T06:41:11.624Z,28.55
2023-03-04T06:43:40.779Z,27.30
2023-03-04T06:46:09.429Z,29.42
2023-03-04T06:48:37.633Z,32.78
2023-03-04T06:51:10.146Z,40.38
2023-03-04T06:53:39.189Z,29.72
2023-03-04T06:56:08.450Z,27.32
2023-03-04T06:58:37.108Z,30.77
2023-03-04T07:01:19.939Z,31.68
2023-03-04T07:03:52.215Z,27.42
2023-03-04T07:06:24.203Z,33.45
2023-03-04T07:08:53.715Z,27.55
2023-03-04T07:11:22.421Z,27.48
2023-03-04T07:13:50.943Z,29.20
2023-03-04T07:16:22.455Z,27.25
2023-03-04T07:18:50.882Z,23.52
2023-03-04T07:21:19.864Z,23.73
2023-03-04T07:23:48.240Z,25.35
2023-03-04T07:26:17.733Z,24.95
2023-03-04T07:29:05.572Z,19.17
2023-03-04T07:31:35.089Z,21.97
2023-03-04T07:34:06.499Z,21.75
2023-03-04T07:36:36.503Z,23.40
2023-03-04T07:39:09.486Z,25.15
2023-03-04T07:41:37.893Z,18.80
2023-03-04T07:44:07.988Z,19.67
2023-03-04T07:46:35.802Z,22.70
2023-03-04T07:49:03.674Z,23.07
2023-03-04T07:51:32.156Z,23.47
2023-03-04T07:54:01.834Z,19.82
2023-03-04T07:56:32.380Z,18.62
2023-03-04T07:59:00.950Z,19.35
2023-03-04T08:01:37.944Z,24.45
2023-03-04T08:04:07.913Z,21.55
2023-03-04T08:06:36.005Z,20.75
2023-03-04T08:09:07.991Z,25.00
2023-03-04T08:11:38.175Z,29.27
2023-03-04T08:14:07.510Z,21.10
2023-03-04T08:16:35.524Z,20.20
2023-03-04T08:19:05.102Z,24.82
2023-03-04T08:21:34.181Z,20.80
2023-03-04T08:24:05.035Z,17.67
2023-03-04T08:26:40.900Z,20.43
2023-03-04T08:29:11.089Z,20.35
2023-03-04T08:31:39.780Z,24.07
2023-03-04T08:34:13.420Z,21.90
2023-03-04T08:36:45.509Z,19.62
2023-03-04T08:39:14.793Z,21.70
2023-03-04T08:41:43.996Z,20.92
2023-03-04T08:44:12.336Z,20.30
2023-03-04T08:46:41.720Z,25.57
2023-03-04T08:49:12.824Z,20.92
2023-03-04T08:51:41.466Z,29.87
2023-03-04T08:54:10.250Z,25.17
2023-03-04T08:56:38.609Z,29.07
2023-03-04T08:59:07.183Z,28.80
2023-03-04T09:01:42.857Z,30.08
2023-03-04T09:04:10.644Z,32.30
2023-03-04T09:06:39.629Z,31.40
2023-03-04T09:09:07.672Z,30.52
2023-03-04T09:11:42.569Z,29.72
2023-03-04T09:14:10.618Z,30.80
2023-03-04T09:16:38.881Z,27.32
2023-03-04T09:19:07.437Z,29.45
2023-03-04T09:21:35.226Z,28.47
2023-03-04T09:24:03.870Z,26.82
2023-03-04T09:26:31.634Z,25.62
2023-03-04T09:29:04.376Z,30.92
2023-03-04T09:31:32.499Z,32.20
2023-03-04T09:34:15.212Z,34.10
2023-03-04T09:36:43.288Z,26.17
2023-03-04T09:41:56.272Z,26.35
2023-03-04T09:44:37.093Z,33.15
2023-03-04T09:47:08.873Z,24.43
2023-03-04T09:50:01.535Z,26.10
2023-03-04T09:52:36.535Z,27.35
2023-03-04T09:55:32.460Z,30.92
2023-03-04T09:58:31.676Z,24.57
2023-03-04T10:01:05.356Z,30.02
2023-03-04T10:04:02.403Z,23.70
2023-03-04T10:06:32.821Z,23.10
2023-03-04T10:09:04.399Z,27.55
2023-03-04T10:11:51.516Z,26.68
2023-03-04T10:14:26.208Z,27.07
2023-03-04T10:19:55.584Z,23.27
2023-03-04T10:22:33.435Z,29.20
2023-03-04T10:25:05.291Z,27.20
2023-03-04T10:27:33.387Z,34.95
2023-03-04T10:30:01.632Z,29.10
2023-03-04T10:32:29.476Z,28.65
2023-03-04T10:35:00.696Z,29.27
2023-03-04T10:37:32.238Z,28.47
2023-03-04T10:40:04.888Z,27.13
2023-03-04T10:42:37.987Z,29.37
2023-03-04T10:45:10.172Z,29.42
2023-03-04T10:47:38.196Z,27.32
2023-03-04T10:50:10.395Z,29.35
2023-03-04T10:52:56.321Z,30.77
2023-03-04T10:55:30.827Z,27.93
2023-03-04T10:58:04.270Z,30.00
2023-03-04T11:00:35.474Z,29.90
2023-03-04T11:03:22.682Z,31.93
2023-03-04T11:05:51.479Z,27.87
2023-03-04T11:08:21.604Z,29.02
2023-03-04T11:10:53.520Z,30.25
2023-03-04T11:13:25.414Z,28.00
2023-03-04T11:16:03.036Z,28.02
2023-03-04T11:21:31.765Z,31.45
2023-03-04T11:24:03.225Z,33.05
2023-03-04T11:26:50.143Z,31.75
2023-03-04T11:29:21.651Z,31.15
2023-03-04T11:31:56.647Z,33.25
2023-03-04T11:37:17.518Z,29.57
2023-03-04T11:39:49.172Z,29.50
2023-03-04T11:42:53.237Z,28.60
2023-03-04T11:45:54.725Z,31.95
2023-03-04T11:48:47.672Z,30.70
2023-03-04T11:51:19.621Z,32.00
2023-03-04T11:54:26.474Z,35.60
2023-03-04T11:57:01.782Z,37.55
2023-03-04T11:59:57.669Z,33.67
2023-03-04T12:02:32.780Z,36.20
2023-03-04T12:05:30.151Z,35.85
2023-03-04T12:08:27.631Z,34.78
2023-03-04T12:11:32.636Z,31.75
2023-03-04T12:14:13.466Z,32.58
2023-03-04T12:17:04.195Z,31.95
2023-03-04T12:19:38.863Z,33.78
2023-03-04T12:22:23.045Z,33.15
2023-03-04T12:25:18.117Z,27.87
2023-03-04T12:28:06.553Z,32.28
2023-03-04T12:30:58.454Z,32.70
2023-03-04T12:33:54.401Z,35.75
2023-03-04T12:36:41.534Z,30.48
2023-03-04T12:39:34.347Z,30.43
2023-03-04T12:42:11.361Z,33.55
2023-03-04T12:44:48.962Z,27.17
2023-03-04T12:47:40.798Z,28.40
2023-03-04T12:50:12.603Z,31.97
2023-03-04T12:52:52.904Z,30.23
2023-03-04T12:55:25.729Z,28.83
2023-03-04T12:57:56.455Z,31.57
2023-03-04T13:00:44.326Z,27.62
2023-03-04T13:03:25.786Z,31.00
2023-03-04T13:06:12.900Z,28.60
2023-03-04T13:08:53.441Z,26.85
2023-03-04T13:11:31.560Z,27.82
2023-03-04T13:14:05.915Z,28.70
2023-03-04T13:16:45.242Z,30.08
2023-03-04T13:19:34.156Z,31.95
2023-03-04T13:22:01.956Z,28.17
2023-03-04T13:24:52.346Z,30.52
2023-03-04T13:30:10.494Z,32.10
2023-03-04T13:32:42.630Z,34.08
2023-03-04T13:35:49.381Z,29.77
2023-03-04T13:38:24.158Z,28.27
2023-03-04T13:41:17.461Z,30.92
2023-03-04T13:44:00.055Z,30.00
2023-03-04T13:46:31.667Z,39.63
2023-03-04T13:49:03.529Z,29.25
2023-03-04T13:51:37.063Z,33.67
2023-03-04T13:54:14.527Z,35.48
2023-03-04T13:56:51.166Z,34.15
2023-03-04T13:59:25.736Z,31.52
2023-03-04T14:02:01.492Z,34.35
2023-03-04T14:04:33.661Z,33.20
2023-03-04T14:07:05.292Z,34.48
2023-03-04T14:09:35.365Z,34.45
2023-03-04T14:12:06.033Z,32.93
2023-03-04T14:14:55.655Z,32.30
2023-03-04T14:17:29.880Z,36.68
2023-03-04T14:19:58.374Z,31.57
2023-03-04T14:22:36.045Z,32.13
2023-03-04T14:25:10.988Z,29.95
2023-03-04T14:27:38.746Z,28.07
2023-03-04T14:30:39.190Z,32.55
2023-03-04T14:32:58.752Z,27.93
2023-03-04T14:35:28.837Z,30.35
2023-03-04T14:38:04.071Z,28.12
2023-03-04T14:40:45.110Z,29.57
2023-03-04T14:43:16.953Z,28.30
2023-03-04T14:45:46.864Z,32.95
2023-03-04T14:48:27.426Z,29.70
2023-03-04T14:50:57.126Z,29.60
2023-03-04T14:53:27.911Z,30.27
2023-03-04T14:55:59.098Z,27.52
2023-03-04T14:58:30.455Z,31.15
2023-03-04T15:01:09.915Z,30.20
2023-03-04T15:03:38.005Z,26.70
2023-03-04T15:06:19.222Z,26.12
2023-03-04T15:08:52.154Z,28.50
2023-03-04T15:11:26.619Z,28.35
2023-03-04T15:13:57.998Z,23.83
2023-03-04T15:16:30.268Z,27.50
2023-03-04T15:19:23.102Z,28.50
2023-03-04T15:21:51.702Z,27.93
2023-03-04T15:24:19.778Z,25.72
2023-03-04T15:26:52.149Z,23.80
2023-03-04T15:29:21.722Z,24.27
2023-03-04T15:31:49.901Z,28.15
2023-03-04T15:34:20.231Z,26.60
2023-03-04T15:36:51.483Z,26.02
2023-03-04T15:39:22.015Z,27.13
2023-03-04T15:41:50.940Z,27.85
2023-03-04T15:44:18.992Z,26.45
2023-03-04T15:46:50.582Z,26.93
2023-03-04T15:49:19.052Z,28.62
2023-03-04T15:51:47.324Z,26.35
2023-03-04T15:54:15.267Z,24.87
2023-03-04T15:56:44.380Z,26.15
2023-03-04T15:59:15.037Z,24.75
2023-03-04T16:01:45.192Z,25.88
2023-03-04T16:04:18.053Z,24.57
2023-03-04T16:06:47.366Z,26.23
2023-03-04T16:09:17.784Z,27.75
2023-03-04T16:11:47.938Z,27.27
2023-03-04T16:14:16.981Z,26.10
2023-03-04T16:16:46.556Z,27.32
2023-03-04T16:19:15.139Z,30.20
2023-03-04T16:21:43.167Z,29.20
2023-03-04T16:24:20.186Z,32.55
2023-03-04T16:26:49.310Z,28.75
2023-03-04T16:29:17.614Z,31.65
2023-03-04T16:31:45.433Z,28.98
2023-03-04T16:34:14.149Z,32.48
2023-03-04T16:36:43.360Z,28.45
2023-03-04T16:39:18.522Z,30.82
2023-03-04T16:41:48.358Z,28.07
2023-03-04T16:44:16.483Z,30.57
2023-03-04T16:46:44.356Z,31.05
2023-03-04T16:49:12.928Z,33.70
2023-03-04T16:51:46.967Z,33.42
2023-03-04T16:54:21.975Z,30.65
2023-03-04T16:56:50.006Z,32.30
2023-03-04T16:59:17.739Z,34.33
2023-03-04T17:01:45.606Z,33.05
2023-03-04T17:04:13.438Z,33.98
2023-03-04T17:06:42.370Z,35.33
2023-03-04T17:09:11.661Z,35.78
2023-03-04T17:11:40.370Z,31.40
2023-03-04T17:14:08.398Z,35.08
2023-03-04T17:16:37.244Z,33.67
2023-03-04T17:19:08.489Z,32.73
2023-03-04T17:21:36.262Z,34.13
2023-03-04T17:24:04.192Z,34.73
2023-03-04T17:26:35.517Z,35.28
2023-03-04T17:29:03.670Z,33.80
2023-03-04T17:31:31.496Z,37.45
2023-03-04T17:33:59.435Z,30.20
2023-03-04T17:36:27.137Z,36.65
2023-03-04T17:38:55.199Z,31.85
2023-03-04T17:41:25.273Z,37.15
2023-03-04T17:43:58.404Z,34.88
2023-03-04T17:46:29.523Z,35.05
2023-03-04T17:49:02.284Z,33.53
2023-03-04T17:51:33.454Z,33.60
2023-03-04T17:54:02.162Z,34.83
2023-03-04T17:56:33.432Z,35.85
2023-03-04T17:59:03.486Z,37.23
2023-03-04T18:01:38.234Z,40.38
2023-03-04T18:04:09.428Z,42.33
2023-03-04T18:06:54.998Z,38.83
2023-03-04T18:09:24.355Z,37.28
2023-03-04T18:11:55.818Z,38.70
2023-03-04T18:14:41.665Z,39.42
2023-03-04T18:17:12.261Z,36.73
2023-03-04T18:19:41.009Z,40.17
2023-03-04T18:22:09.669Z,37.70
2023-03-04T18:24:39.034Z,42.05
2023-03-04T18:27:07.557Z,41.95
2023-03-04T18:29:37.689Z,40.60
2023-03-04T18:32:06.121Z,36.50
2023-03-04T18:34:33.964Z,38.80
2023-03-04T18:37:05.390Z,37.05
2023-03-04T18:39:33.436Z,40.52
2023-03-04T18:42:03.036Z,42.50
2023-03-04T18:44:31.000Z,42.00
2023-03-04T18:47:02.162Z,37.17
2023-03-04T18:49:30.180Z,38.23
2023-03-04T18:51:58.048Z,44.27
2023-03-04T18:54:27.373Z,37.93
2023-03-04T18:57:04.857Z,44.45
2023-03-04T18:59:39.784Z,45.08
2023-03-04T19:02:11.325Z,41.00
2023-03-04T19:04:39.144Z,42.17
2023-03-04T19:07:07.008Z,46.02
2023-03-04T19:09:44.478Z,43.73
2023-03-04T19:12:15.419Z,42.90
2023-03-04T19:14:45.145Z,45.30
2023-03-04T19:17:14.761Z,50.28
2023-03-04T19:19:44.145Z,42.85
2023-03-04T19:22:13.038Z,46.63
2023-03-04T19:24:42.588Z,46.37
2023-03-04T19:27:12.431Z,44.88
2023-03-04T19:29:40.548Z,48.95
2023-03-04T19:32:08.889Z,42.33
2023-03-04T19:34:36.594Z,44.15
2023-03-04T19:37:04.979Z,45.98
2023-03-04T19:39:32.457Z,43.92
2023-03-04T19:42:00.408Z,46.28
2023-03-04T19:44:28.531Z,44.10
2023-03-04T19:46:57.549Z,42.23
2023-03-04T19:49:25.706Z,42.15
2023-03-04T19:51:56.330Z,48.98
2023-03-04T19:54:30.846Z,43.23
2023-03-04T19:56:59.499Z,50.45
2023-03-04T19:59:27.604Z,47.15
2023-03-04T20:01:55.866Z,46.23
2023-03-04T20:04:23.659Z,44.90
2023-03-04T20:06:51.858Z,45.20
2023-03-04T20:09:20.397Z,45.90
2023-03-04T20:11:59.274Z,44.65
2023-03-04T20:14:19.674Z,46.18
2023-03-04T20:16:48.754Z,44.55
2023-03-04T20:19:17.106Z,41.45
2023-03-04T20:21:45.115Z,41.85
2023-03-04T20:24:15.419Z,39.53
2023-03-04T20:26:43.802Z,52.60
2023-03-04T20:29:16.147Z,41.68
2023-03-04T20:31:45.107Z,46.55
2023-03-04T20:34:13.822Z,40.10
2023-03-04T20:36:41.948Z,39.83
2023-03-04T20:39:28.010Z,44.40
2023-03-04T20:41:44.116Z,43.65
2023-03-04T20:44:12.225Z,40.85
2023-03-04T20:46:45.703Z,42.60
2023-03-04T20:49:24.222Z,40.50
2023-03-04T20:52:08.426Z,42.75
2023-03-04T20:54:38.673Z,41.00
2023-03-04T20:57:08.303Z,40.90
2023-03-04T20:59:38.175Z,42.65
2023-03-04T21:02:14.276Z,40.73
2023-03-04T21:04:42.123Z,40.73
2023-03-04T21:07:15.002Z,44.65
2023-03-04T21:09:44.525Z,40.17
2023-03-04T21:12:12.394Z,42.30
2023-03-04T21:14:41.028Z,41.65
2023-03-04T21:17:09.925Z,41.30
2023-03-04T21:19:42.330Z,40.90
2023-03-04T21:22:19.225Z,36.17
2023-03-04T21:24:48.182Z,38.13
2023-03-04T21:27:17.291Z,41.18
2023-03-04T21:29:45.260Z,41.65
2023-03-04T21:32:24.560Z,36.70
2023-03-04T21:34:51.350Z,39.45
2023-03-04T21:37:20.754Z,35.17
2023-03-04T21:39:49.613Z,39.55
2023-03-04T21:42:19.050Z,38.90
2023-03-04T21:44:51.265Z,39.83
2023-03-04T21:47:16.726Z,41.60
2023-03-04T21:49:46.462Z,42.78
2023-03-04T21:52:15.592Z,38.13
2023-03-04T21:54:43.772Z,35.35
2023-03-04T21:57:17.514Z,38.28
2023-03-04T21:59:47.205Z,38.30
2023-03-04T22:02:24.887Z,38.98
2023-03-04T22:04:54.011Z,41.48
2023-03-04T22:07:21.675Z,37.73
2023-03-04T22:09:49.881Z,36.17
2023-03-04T22:12:20.008Z,40.60
2023-03-04T22:14:47.748Z,42.70
2023-03-04T22:17:16.341Z,38.40
2023-03-04T22:19:45.187Z,36.40
2023-03-04T22:22:15.585Z,43.92
2023-03-04T22:24:44.031Z,42.73
2023-03-04T22:27:15.651Z,41.20
2023-03-04T22:29:47.105Z,42.38
2023-03-04T22:32:20.643Z,40.40
2023-03-04T22:34:48.880Z,44.27
2023-03-04T22:37:18.452Z,38.98
2023-03-04T22:39:46.647Z,39.35
2023-03-04T22:42:15.120Z,39.00
2023-03-04T22:44:45.062Z,39.73
2023-03-04T22:47:24.100Z,40.15
2023-03-04T22:49:52.489Z,41.55
2023-03-04T22:52:24.737Z,40.65
2023-03-04T22:54:53.280Z,38.48
2023-03-04T22:57:21.297Z,45.25
2023-03-04T22:59:49.375Z,38.30
2023-03-04T23:02:17.337Z,38.00
2023-03-04T23:04:45.695Z,37.58
2023-03-04T23:07:13.462Z,42.58
2023-03-04T23:09:42.131Z,41.83
2023-03-04T23:12:21.565Z,46.63
2023-03-04T23:14:53.175Z,41.58
2023-03-04T23:17:24.396Z,40.98
2023-03-04T23:19:52.910Z,39.50
2023-03-04T23:22:22.090Z,39.88
2023-03-04T23:24:50.076Z,43.90
2023-03-04T23:27:18.515Z,43.13
2023-03-04T23:29:46.723Z,38.65
2023-03-04T23:32:14.994Z,40.10
2023-03-04T23:34:42.933Z,41.95
2023-03-04T23:37:13.026Z,45.23
2023-03-04T23:39:42.209Z,42.15
2023-03-04T23:42:10.502Z,40.00
2023-03-04T23:44:38.460Z,38.35
2023-03-04T23:47:06.771Z,42.27
2023-03-04T23:49:34.607Z,36.83
2023-03-04T23:52:02.619Z,41.33
2023-03-04T23:54:31.556Z,42.55
2023-03-04T23:57:01.397Z,40.28
2023-03-04T23:59:29.939Z,39.00
